2018-11-13 - 04:47:00

SR: 0646 - SS: 1541

RWY: 25


OBSERVATION: n/a

RVR Mean 1 min: (Runway Visual Range)
A: P2000 - B: P2000 - C: P2000
RVR Mean 10 min:
A: P2000 - B: P2000 - C: P2000
WARNING: n/a
W25: 140-210(180-04kt) 03kt-07kt
W07: 120-300(190-03kt) 01kt-06kt
OTHER: n/a

QFE: (tats�chlicher Luftdruck) 1013.1 hPa = 29.91 inHg
QNH:(Luftdruck auf Meeresh�he) 1018.9 hPa = 30.06 inHg
Temperatur: 9.6 �C
Dew point(Taupunkt): 8.2 �C

METAR:  00063 SADL31 EDDG 130420 METAR EDDG 130420Z 19005KT 160V220 5000 BR NSC 10/08 Q1019 NOSIG= 
METAR (aus weather.noaa.gov):
2018/11/13 04:20 EDDG 130420Z 19005KT 160V220 5000 BR NSC 10/08 Q1019 NOSIG

TAF (aus weather.noaa.gov):
2018/11/13 00:00 TAF COR TAF COR EDDG 122355Z 1300/1324 19004KT 9999 BKN040 TEMPO 1300/1305 3000 BR BKN005 BECMG 1307/1310 23012KT BECMG 1310/1312 23015G25KT PROB30 TEMPO 1312/1315 SHRA BKN020CB BECMG 1316/1319 22007KT